createdAt,value
2022-09-01T00:01:30.120Z,79.38
2022-09-01T00:04:04.165Z,79.51
2022-09-01T00:06:34.820Z,79.76
2022-09-01T00:09:05.374Z,79.73
2022-09-01T00:11:35.059Z,79.61
2022-09-01T00:14:03.713Z,79.59
2022-09-01T00:16:32.915Z,79.91
2022-09-01T00:19:02.715Z,79.68
2022-09-01T00:21:34.487Z,80.05
2022-09-01T00:24:02.735Z,80.14
2022-09-01T00:26:30.480Z,80.18
2022-09-01T00:28:59.664Z,80.25
2022-09-01T00:31:27.854Z,80.39
2022-09-01T00:33:56.170Z,80.68
2022-09-01T00:36:24.586Z,80.76
2022-09-01T00:38:53.094Z,81.00
2022-09-01T00:41:24.452Z,81.07
2022-09-01T00:43:54.588Z,81.41
2022-09-01T00:46:29.016Z,81.45
2022-09-01T00:48:59.896Z,81.61
2022-09-01T00:51:29.106Z,81.95
2022-09-01T00:53:59.750Z,82.11
2022-09-01T00:56:27.524Z,82.40
2022-09-01T00:58:55.534Z,82.48
2022-09-01T01:01:24.572Z,82.89
2022-09-01T01:03:52.311Z,82.96
2022-09-01T01:06:26.833Z,82.93
2022-09-01T01:08:58.932Z,83.20
2022-09-01T01:11:30.178Z,83.31
2022-09-01T01:14:00.871Z,83.43
2022-09-01T01:16:30.510Z,83.67
2022-09-01T01:18:58.531Z,83.86
2022-09-01T01:21:58.456Z,84.42
2022-09-01T01:24:28.225Z,85.08
2022-09-01T01:26:57.412Z,85.57
2022-09-01T01:29:25.565Z,85.89
2022-09-01T01:31:54.523Z,86.08
2022-09-01T01:34:23.419Z,86.41
2022-09-01T01:36:52.082Z,86.66
2022-09-01T01:39:25.371Z,87.00
2022-09-01T01:41:57.480Z,86.98
2022-09-01T01:44:28.395Z,87.10
2022-09-01T01:46:59.925Z,86.88
2022-09-01T01:49:31.119Z,87.24
2022-09-01T01:51:59.111Z,87.51
2022-09-01T01:54:31.375Z,87.85
2022-09-01T01:57:02.097Z,87.78
2022-09-01T01:59:29.901Z,87.54
2022-09-01T02:01:58.450Z,87.50
2022-09-01T02:04:26.241Z,87.64
2022-09-01T02:06:55.885Z,87.76
2022-09-01T02:09:23.932Z,87.51
2022-09-01T02:11:57.155Z,87.27
2022-09-01T02:14:26.532Z,87.27
2022-09-01T02:16:56.014Z,87.09
2022-09-01T02:19:23.955Z,87.08
2022-09-01T02:21:54.377Z,87.21
2022-09-01T02:24:22.116Z,87.68
2022-09-01T02:26:50.071Z,87.68
2022-09-01T02:29:22.019Z,88.04
2022-09-01T02:31:54.846Z,88.31
2022-09-01T02:34:24.598Z,88.46
2022-09-01T02:36:55.994Z,88.68
2022-09-01T02:39:28.160Z,88.65
2022-09-01T02:41:56.580Z,88.96
2022-09-01T02:44:27.863Z,89.05
2022-09-01T02:46:56.961Z,89.05
2022-09-01T02:49:28.280Z,89.12
2022-09-01T02:52:01.907Z,89.34
2022-09-01T02:54:33.490Z,89.10
2022-09-01T02:57:01.929Z,89.25
2022-09-01T02:59:32.143Z,89.06
2022-09-01T03:02:02.779Z,89.17
2022-09-01T03:04:35.404Z,89.02
2022-09-01T03:07:05.059Z,89.25
2022-09-01T03:09:35.163Z,89.42
2022-09-01T03:12:03.180Z,89.37
2022-09-01T03:14:32.024Z,89.49
2022-09-01T03:17:00.692Z,89.59
2022-09-01T03:19:40.536Z,89.66
2022-09-01T03:22:08.557Z,89.37
2022-09-01T03:24:37.211Z,89.18
2022-09-01T03:27:05.141Z,89.27
2022-09-01T03:29:33.241Z,89.00
2022-09-01T03:32:01.685Z,88.90
2022-09-01T03:34:34.390Z,89.14
2022-09-01T03:37:07.905Z,88.89
2022-09-01T03:39:35.856Z,88.87
2022-09-01T03:42:03.548Z,88.81
2022-09-01T03:44:33.995Z,88.73
2022-09-01T03:47:01.651Z,88.79
2022-09-01T03:49:31.756Z,88.86
2022-09-01T03:52:01.271Z,88.67
2022-09-01T03:54:30.620Z,88.79
2022-09-01T03:56:59.950Z,88.43
2022-09-01T03:59:29.956Z,88.05
2022-09-01T04:01:59.863Z,88.03
2022-09-01T04:04:27.950Z,87.98
2022-09-01T04:06:56.989Z,87.87
2022-09-01T04:09:24.675Z,87.61
2022-09-01T04:11:53.055Z,87.54
2022-09-01T04:14:21.812Z,87.40
2022-09-01T04:17:22.500Z,86.96
2022-09-01T04:19:50.129Z,86.83
2022-09-01T04:22:21.098Z,86.84
2022-09-01T04:24:48.829Z,86.56
2022-09-01T04:27:18.495Z,86.21
2022-09-01T04:29:46.928Z,85.93
2022-09-01T04:32:15.778Z,85.94
2022-09-01T04:34:47.013Z,86.07
2022-09-01T04:37:21.188Z,85.92
2022-09-01T04:39:57.132Z,85.89
2022-09-01T04:42:27.293Z,85.73
2022-09-01T04:44:57.545Z,85.98
2022-09-01T04:47:36.326Z,85.84
2022-09-01T04:50:14.022Z,85.46
2022-09-01T04:52:45.933Z,85.40
2022-09-01T04:55:28.729Z,85.01
2022-09-01T04:57:57.775Z,84.62
2022-09-01T05:00:31.885Z,84.40
2022-09-01T05:03:04.379Z,84.04
2022-09-01T05:05:53.987Z,83.35
2022-09-01T05:08:24.899Z,83.34
2022-09-01T05:10:56.892Z,83.07
2022-09-01T05:13:56.204Z,82.92
2022-09-01T05:16:25.797Z,82.67
2022-09-01T05:18:58.403Z,82.27
2022-09-01T05:21:30.791Z,81.77
2022-09-01T05:24:03.863Z,81.50
2022-09-01T05:26:34.624Z,81.20
2022-09-01T05:29:10.621Z,81.19
2022-09-01T05:31:38.980Z,80.99
2022-09-01T05:34:08.011Z,80.84
2022-09-01T05:36:36.280Z,80.50
2022-09-01T05:39:07.599Z,80.40
2022-09-01T05:41:35.781Z,79.95
2022-09-01T05:44:08.112Z,79.77
2022-09-01T05:46:39.455Z,79.54
2022-09-01T05:49:09.250Z,78.74
2022-09-01T05:51:50.279Z,78.53
2022-09-01T05:54:27.454Z,78.33
2022-09-01T05:57:00.160Z,77.94
2022-09-01T05:59:36.040Z,77.94
2022-09-01T06:02:12.352Z,77.54
2022-09-01T06:04:42.161Z,77.14
2022-09-01T06:07:16.476Z,76.87
2022-09-01T06:09:54.082Z,76.33
2022-09-01T06:12:24.958Z,76.17
2022-09-01T06:14:55.415Z,76.26
2022-09-01T06:17:25.993Z,75.55
2022-09-01T06:19:57.635Z,75.03
2022-09-01T06:22:27.976Z,74.38
2022-09-01T06:25:02.218Z,74.07
2022-09-01T06:27:38.746Z,73.17
2022-09-01T06:30:14.951Z,72.89
2022-09-01T06:32:49.710Z,72.48
2022-09-01T06:35:17.981Z,72.32
2022-09-01T06:37:47.158Z,72.18
2022-09-01T06:40:28.699Z,72.12
2022-09-01T06:42:56.893Z,71.46
2022-09-01T06:45:26.126Z,71.25
2022-09-01T06:47:57.735Z,70.79
2022-09-01T06:53:45.546Z,70.26
2022-09-01T06:56:13.506Z,69.69
2022-09-01T06:58:44.984Z,69.37
2022-09-01T07:01:15.444Z,69.46
2022-09-01T07:03:44.069Z,69.51
2022-09-01T07:12:27.876Z,67.49
2022-09-01T07:17:49.019Z,65.40
2022-09-01T07:20:26.124Z,64.88
2022-09-01T07:23:04.402Z,64.60
2022-09-01T07:25:48.387Z,64.56
2022-09-01T07:28:39.828Z,64.34
2022-09-01T07:38:48.062Z,64.34
2022-09-01T07:39:51.990Z,64.35
2022-09-01T07:45:58.325Z,62.89
2022-09-01T07:49:01.317Z,61.36
2022-09-01T07:51:36.903Z,61.19
2022-09-01T07:54:06.166Z,60.93
2022-09-01T07:56:39.734Z,61.16
2022-09-01T07:59:09.503Z,60.98
2022-09-01T08:01:52.595Z,61.17
2022-09-01T08:04:23.021Z,60.35
2022-09-01T08:06:51.828Z,60.02
2022-09-01T08:09:37.195Z,59.39
2022-09-01T08:12:07.306Z,58.67
2022-09-01T08:14:39.054Z,58.32
2022-09-01T08:17:17.482Z,58.11
2022-09-01T08:19:59.332Z,57.62
2022-09-01T08:22:53.173Z,57.55
2022-09-01T08:25:42.103Z,57.42
2022-09-01T08:28:10.089Z,56.72
2022-09-01T08:30:40.587Z,56.53
2022-09-01T08:33:11.742Z,56.23
2022-09-01T08:35:45.330Z,56.00
2022-09-01T08:38:13.128Z,55.13
2022-09-01T08:40:44.107Z,54.59
2022-09-01T08:43:25.796Z,54.10
2022-09-01T08:45:56.726Z,53.48
2022-09-01T08:51:28.412Z,52.72
2022-09-01T08:54:05.622Z,52.75
2022-09-01T08:56:35.457Z,51.84
2022-09-01T08:59:03.888Z,51.85
2022-09-01T09:01:55.341Z,52.04
2022-09-01T09:04:39.736Z,51.70
2022-09-01T09:07:15.166Z,51.48
2022-09-01T09:09:54.280Z,50.63
2022-09-01T09:12:48.905Z,50.08
2022-09-01T09:15:25.512Z,48.90
2022-09-01T09:18:00.991Z,48.22
2022-09-01T09:20:30.463Z,47.73
2022-09-01T09:22:59.642Z,47.66
2022-09-01T09:25:29.714Z,47.06
2022-09-01T09:28:00.993Z,46.66
2022-09-01T09:30:31.446Z,45.95
2022-09-01T09:35:54.361Z,46.25
2022-09-01T09:38:29.012Z,45.61
2022-09-01T09:41:19.875Z,45.07
2022-09-01T09:43:55.909Z,44.29
2022-09-01T09:46:27.502Z,44.24
2022-09-01T09:49:10.007Z,43.96
2022-09-01T09:51:42.305Z,43.58
2022-09-01T09:54:16.548Z,43.65
2022-09-01T09:56:45.591Z,43.55
2022-09-01T09:59:39.810Z,43.35
2022-09-01T10:02:27.410Z,43.06
2022-09-01T10:04:57.223Z,42.25
2022-09-01T10:07:37.861Z,41.80
2022-09-01T10:10:07.917Z,41.59
2022-09-01T10:12:36.060Z,40.93
2022-09-01T10:15:11.661Z,40.77
2022-09-01T10:17:43.520Z,40.38
2022-09-01T10:20:17.003Z,39.74
2022-09-01T10:22:48.589Z,39.16
2022-09-01T10:25:21.729Z,38.32
2022-09-01T10:27:55.034Z,38.08
2022-09-01T10:30:23.592Z,37.78
2022-09-01T10:32:56.415Z,37.58
2022-09-01T10:35:28.080Z,37.32
2022-09-01T10:37:59.447Z,36.20
2022-09-01T10:40:43.873Z,35.85
2022-09-01T10:43:36.364Z,35.92
2022-09-01T10:46:50.981Z,33.85
2022-09-01T10:49:35.745Z,33.54
2022-09-01T10:52:07.574Z,33.90
2022-09-01T10:55:02.581Z,34.04
2022-09-01T10:57:42.872Z,34.01
2022-09-01T11:01:10.530Z,33.52
2022-09-01T11:03:57.662Z,32.99
2022-09-01T11:07:11.916Z,32.53
2022-09-01T11:09:41.947Z,32.13
2022-09-01T11:12:29.133Z,31.98
2022-09-01T11:15:00.106Z,32.39
2022-09-01T11:17:33.580Z,31.82
2022-09-01T11:20:08.764Z,32.17
2022-09-01T11:22:40.734Z,32.01
2022-09-01T11:25:41.421Z,32.20
2022-09-01T11:28:44.109Z,31.21
2022-09-01T11:31:24.009Z,31.10
2022-09-01T11:34:04.696Z,30.48
2022-09-01T11:36:36.152Z,30.26
2022-09-01T11:39:08.320Z,29.81
2022-09-01T11:41:55.769Z,30.24
2022-09-01T11:44:32.853Z,30.53
2022-09-01T11:47:07.018Z,30.04
2022-09-01T11:49:41.643Z,29.42
2022-09-01T11:52:16.951Z,29.06
2022-09-01T11:54:46.533Z,29.07
2022-09-01T11:57:23.734Z,29.33
2022-09-01T11:59:53.332Z,28.78
2022-09-01T12:02:25.222Z,28.41
2022-09-01T12:04:54.976Z,28.02
2022-09-01T12:07:31.224Z,27.25
2022-09-01T12:09:59.212Z,26.79
2022-09-01T12:12:33.729Z,27.00
2022-09-01T12:15:07.161Z,26.82
2022-09-01T12:17:35.094Z,26.41
2022-09-01T12:20:30.996Z,26.72
2022-09-01T12:23:02.243Z,26.84
2022-09-01T12:25:33.176Z,27.06
2022-09-01T12:28:01.917Z,27.07
2022-09-01T12:30:35.298Z,26.63
2022-09-01T12:35:57.471Z,27.45
2022-09-01T12:38:31.349Z,27.28
2022-09-01T12:40:59.902Z,27.09
2022-09-01T12:43:37.082Z,27.00
2022-09-01T12:46:09.262Z,26.82
2022-09-01T12:48:40.901Z,27.01
2022-09-01T12:51:20.314Z,27.05
2022-09-01T12:53:54.185Z,26.91
2022-09-01T12:56:27.862Z,26.19
2022-09-01T12:59:14.124Z,26.47
2022-09-01T13:01:44.757Z,26.95
2022-09-01T13:04:25.947Z,26.28
2022-09-01T13:06:54.483Z,26.37
2022-09-01T13:09:22.572Z,26.15
2022-09-01T13:12:07.100Z,25.37
2022-09-01T13:14:35.193Z,25.09
2022-09-01T13:17:04.599Z,25.53
2022-09-01T13:19:32.244Z,25.72
2022-09-01T13:21:59.875Z,25.41
2022-09-01T13:24:30.372Z,25.41
2022-09-01T13:29:47.439Z,25.70
2022-09-01T13:32:18.884Z,25.22
2022-09-01T13:34:50.461Z,25.47
2022-09-01T13:37:19.681Z,25.21
2022-09-01T13:39:48.502Z,25.62
2022-09-01T13:42:16.581Z,25.39
2022-09-01T13:44:44.869Z,25.10
2022-09-01T13:47:28.920Z,24.77
2022-09-01T13:50:08.414Z,24.51
2022-09-01T13:52:39.663Z,24.92
2022-09-01T13:55:08.958Z,24.98
2022-09-01T13:57:37.042Z,25.13
2022-09-01T14:00:07.727Z,25.52
2022-09-01T14:02:38.091Z,25.04
2022-09-01T14:05:08.372Z,25.17
2022-09-01T14:07:36.185Z,25.18
2022-09-01T14:10:05.060Z,25.26
2022-09-01T14:12:32.766Z,25.31
2022-09-01T14:15:18.085Z,25.25
2022-09-01T14:17:49.486Z,25.01
2022-09-01T14:20:21.951Z,25.48
2022-09-01T14:22:51.283Z,25.80
2022-09-01T14:25:20.938Z,26.34
2022-09-01T14:27:49.648Z,26.64
2022-09-01T14:30:19.363Z,26.78
2022-09-01T14:32:47.655Z,25.97
2022-09-01T14:35:16.925Z,25.81
2022-09-01T14:37:46.153Z,25.79
2022-09-01T14:40:16.417Z,25.51
2022-09-01T14:42:49.088Z,25.34
2022-09-01T14:45:18.655Z,25.30
2022-09-01T14:47:46.812Z,24.75
2022-09-01T14:50:17.219Z,25.26
2022-09-01T14:52:49.989Z,25.99
2022-09-01T14:55:17.869Z,26.54
2022-09-01T14:57:45.542Z,27.25
2022-09-01T15:00:13.937Z,27.62
2022-09-01T15:02:43.449Z,27.96
2022-09-01T15:05:12.847Z,28.29
2022-09-01T15:07:41.514Z,28.73
2022-09-01T15:10:15.818Z,28.76
2022-09-01T15:12:52.429Z,29.05
2022-09-01T15:15:20.060Z,28.86
2022-09-01T15:17:47.695Z,28.47
2022-09-01T15:20:32.897Z,28.50
2022-09-01T15:23:02.113Z,28.63
2022-09-01T15:25:31.264Z,28.65
2022-09-01T15:27:58.889Z,28.50
2022-09-01T15:30:27.965Z,29.03
2022-09-01T15:32:55.999Z,29.70
2022-09-01T15:35:24.425Z,30.14
2022-09-01T15:37:52.852Z,30.01
2022-09-01T15:40:21.300Z,30.74
2022-09-01T15:42:50.674Z,30.43
2022-09-01T15:45:21.832Z,30.80
2022-09-01T15:47:49.861Z,31.19
2022-09-01T15:50:22.120Z,31.39
2022-09-01T15:52:53.018Z,31.68
2022-09-01T15:55:22.963Z,32.11
2022-09-01T15:57:55.010Z,31.90
2022-09-01T16:00:24.552Z,32.03
2022-09-01T16:02:54.286Z,32.62
2022-09-01T16:05:22.179Z,32.58
2022-09-01T16:07:51.941Z,32.95
2022-09-01T16:10:19.857Z,33.16
2022-09-01T16:12:48.142Z,33.73
2022-09-01T16:15:20.555Z,33.85
2022-09-01T16:18:15.725Z,33.96
2022-09-01T16:20:55.604Z,34.56
2022-09-01T16:23:26.255Z,34.54
2022-09-01T16:25:54.649Z,34.58
2022-09-01T16:28:27.767Z,34.89
2022-09-01T16:31:03.234Z,35.39
2022-09-01T16:33:33.002Z,35.46
2022-09-01T16:36:11.544Z,35.72
2022-09-01T16:38:47.887Z,36.01
2022-09-01T16:41:39.668Z,36.44
2022-09-01T16:44:18.481Z,36.70
2022-09-01T16:46:56.430Z,36.92
2022-09-01T16:49:35.928Z,37.00
2022-09-01T16:52:11.019Z,36.85
2022-09-01T16:54:50.236Z,37.05
2022-09-01T16:57:27.978Z,37.34
2022-09-01T16:59:57.428Z,37.55
2022-09-01T17:02:38.396Z,38.61
2022-09-01T17:05:16.818Z,38.78
2022-09-01T17:07:52.396Z,39.59
2022-09-01T17:10:32.788Z,40.45
2022-09-01T17:13:14.319Z,40.84
2022-09-01T17:15:43.957Z,40.72
2022-09-01T17:18:23.004Z,40.66
2022-09-01T17:20:58.023Z,40.55
2022-09-01T17:23:30.804Z,40.51
2022-09-01T17:26:03.577Z,40.45
2022-09-01T17:28:36.056Z,40.63
2022-09-01T17:31:14.226Z,40.76
2022-09-01T17:33:57.475Z,40.79
2022-09-01T17:36:46.106Z,41.34
2022-09-01T17:39:25.120Z,41.97
2022-09-01T17:41:57.510Z,42.05
2022-09-01T17:44:36.512Z,42.43
2022-09-01T17:47:12.977Z,42.98
2022-09-01T17:49:50.500Z,43.02
2022-09-01T17:52:24.146Z,43.35
2022-09-01T17:55:00.011Z,43.40
2022-09-01T17:57:38.759Z,43.92
2022-09-01T18:00:10.715Z,43.78
2022-09-01T18:03:04.715Z,43.80
2022-09-01T18:05:40.936Z,44.53
2022-09-01T18:08:19.221Z,45.30
2022-09-01T18:10:51.348Z,46.36
2022-09-01T18:13:30.921Z,47.47
2022-09-01T18:16:15.859Z,48.21
2022-09-01T18:18:46.171Z,47.18
2022-09-01T18:21:18.493Z,46.32
2022-09-01T18:23:47.752Z,46.19
2022-09-01T18:26:26.344Z,46.23
2022-09-01T18:28:55.069Z,46.40
2022-09-01T18:31:37.499Z,46.31
2022-09-01T18:34:14.899Z,46.73
2022-09-01T18:36:54.940Z,47.05
2022-09-01T18:39:33.957Z,47.47
2022-09-01T18:42:11.726Z,47.60
2022-09-01T18:44:52.781Z,48.28
2022-09-01T18:47:30.913Z,47.84
2022-09-01T18:50:07.209Z,48.37
2022-09-01T18:53:00.178Z,48.42
2022-09-01T18:55:38.934Z,48.80
2022-09-01T18:58:11.347Z,48.91
2022-09-01T19:00:52.176Z,49.45
2022-09-01T19:03:27.602Z,49.83
2022-09-01T19:06:30.383Z,49.95
2022-09-01T19:09:14.368Z,50.22
2022-09-01T19:11:55.596Z,50.58
2022-09-01T19:14:31.488Z,50.85
2022-09-01T19:17:16.203Z,51.43
2022-09-01T19:19:48.973Z,51.75
2022-09-01T19:22:22.260Z,52.03
2022-09-01T19:25:18.138Z,52.35
2022-09-01T19:27:54.787Z,52.54
2022-09-01T19:30:22.410Z,52.77
2022-09-01T19:32:51.472Z,52.95
2022-09-01T19:35:19.672Z,53.14
2022-09-01T19:37:51.164Z,53.43
2022-09-01T19:40:26.362Z,53.41
2022-09-01T19:42:58.414Z,53.58
2022-09-01T19:45:30.703Z,53.99
2022-09-01T19:48:07.202Z,54.16
2022-09-01T19:50:40.582Z,54.42
2022-09-01T19:53:12.501Z,54.78
2022-09-01T19:55:48.743Z,54.83
2022-09-01T19:58:22.385Z,55.17
2022-09-01T20:00:55.038Z,55.26
2022-09-01T20:03:26.972Z,55.47
2022-09-01T20:05:58.390Z,55.77
2022-09-01T20:08:30.281Z,56.19
2022-09-01T20:11:05.220Z,56.32
2022-09-01T20:14:00.973Z,56.60
2022-09-01T20:16:33.556Z,56.65
2022-09-01T20:19:05.433Z,56.96
2022-09-01T20:21:40.070Z,56.97
2022-09-01T20:24:12.639Z,57.18
2022-09-01T20:26:47.016Z,57.38
2022-09-01T20:29:22.070Z,57.54
2022-09-01T20:31:53.467Z,57.67
2022-09-01T20:34:30.066Z,57.90
2022-09-01T20:37:03.338Z,57.96
2022-09-01T20:39:57.267Z,58.03
2022-09-01T20:42:34.475Z,58.45
2022-09-01T20:45:10.632Z,58.63
2022-09-01T20:47:38.267Z,59.04
2022-09-01T20:50:12.159Z,59.05
2022-09-01T20:52:49.454Z,59.14
2022-09-01T20:55:24.579Z,59.40
2022-09-01T20:58:06.043Z,59.52
2022-09-01T21:00:42.823Z,59.63
2022-09-01T21:03:21.832Z,59.88
2022-09-01T21:06:08.165Z,60.19
2022-09-01T21:08:49.830Z,60.23
2022-09-01T21:11:27.525Z,60.52
2022-09-01T21:14:13.991Z,60.70
2022-09-01T21:16:54.380Z,61.01
2022-09-01T21:19:30.572Z,61.05
2022-09-01T21:22:06.075Z,61.35
2022-09-01T21:24:34.513Z,61.74
2022-09-01T21:27:06.881Z,61.85
2022-09-01T21:29:48.224Z,62.33
2022-09-01T21:32:16.530Z,62.63
2022-09-01T21:34:44.316Z,62.76
2022-09-01T21:37:12.541Z,62.81
2022-09-01T21:39:40.644Z,63.13
2022-09-01T21:42:10.744Z,63.11
2022-09-01T21:44:41.285Z,63.33
2022-09-01T21:47:09.024Z,63.46
2022-09-01T21:49:37.703Z,63.76
2022-09-01T21:52:06.320Z,63.88
2022-09-01T21:54:34.957Z,64.01
2022-09-01T21:57:02.650Z,64.04
2022-09-01T21:59:30.720Z,64.08
2022-09-01T22:02:00.666Z,64.12
2022-09-01T22:04:28.518Z,64.21
2022-09-01T22:06:56.232Z,64.38
2022-09-01T22:09:23.870Z,64.43
2022-09-01T22:11:52.497Z,64.73
2022-09-01T22:14:21.627Z,64.75
2022-09-01T22:16:50.728Z,64.98
2022-09-01T22:19:20.262Z,65.22
2022-09-01T22:21:48.369Z,65.36
2022-09-01T22:24:19.077Z,65.55
2022-09-01T22:26:48.520Z,66.00
2022-09-01T22:29:17.434Z,66.05
2022-09-01T22:31:45.689Z,66.21
2022-09-01T22:34:13.586Z,66.27
2022-09-01T22:36:44.820Z,66.20
2022-09-01T22:39:13.462Z,66.41
2022-09-01T22:41:42.284Z,66.38
2022-09-01T22:44:11.071Z,66.46
2022-09-01T22:46:39.930Z,66.55
2022-09-01T22:49:08.895Z,66.93
2022-09-01T22:51:39.032Z,67.00
2022-09-01T22:54:08.930Z,67.21
2022-09-01T22:56:39.518Z,67.40
2022-09-01T22:59:11.755Z,67.67
2022-09-01T23:01:43.018Z,67.81
2022-09-01T23:04:12.741Z,68.05
2022-09-01T23:06:43.075Z,68.47
2022-09-01T23:09:12.954Z,68.87
2022-09-01T23:11:41.488Z,68.98
2022-09-01T23:14:09.210Z,69.19
2022-09-01T23:16:37.044Z,69.35
2022-09-01T23:19:06.099Z,69.47
2022-09-01T23:21:36.233Z,69.94
2022-09-01T23:24:05.404Z,70.29
2022-09-01T23:26:35.167Z,70.63
2022-09-01T23:29:03.708Z,70.77
2022-09-01T23:31:34.628Z,70.91
2022-09-01T23:34:02.859Z,71.09
2022-09-01T23:36:30.897Z,71.37
2022-09-01T23:38:58.832Z,71.56
2022-09-01T23:41:31.031Z,71.56
2022-09-01T23:44:03.454Z,71.94
2022-09-01T23:46:33.076Z,72.22
2022-09-01T23:49:00.734Z,72.26
2022-09-01T23:51:28.451Z,72.59
2022-09-01T23:53:56.126Z,72.69
2022-09-01T23:56:27.538Z,72.79
2022-09-01T23:58:55.269Z,72.85
